createdAt,value
2022-08-11T18:28:16.639Z,29.60
2022-08-11T18:31:22.966Z,29.50
2022-08-11T18:34:23.834Z,29.40
2022-08-11T18:37:29.004Z,29.40
2022-08-11T18:40:22.209Z,29.30
2022-08-11T18:43:12.316Z,29.30
2022-08-11T18:46:06.733Z,29.10
2022-08-11T18:48:58.168Z,29.10
2022-08-11T18:51:45.987Z,28.60
2022-08-11T18:54:53.258Z,28.90
2022-08-11T18:57:54.010Z,28.80
2022-08-11T19:00:44.377Z,28.80
2022-08-11T19:03:48.367Z,28.70
2022-08-11T19:06:40.743Z,28.60
2022-08-11T19:09:34.784Z,28.60
2022-08-11T19:12:22.276Z,28.50
2022-08-11T19:15:12.825Z,28.40
2022-08-11T19:18:03.491Z,28.20
2022-08-11T19:20:53.179Z,28.30
2022-08-11T19:23:48.575Z,28.20
2022-08-11T19:26:41.708Z,28.10
2022-08-11T19:30:04.906Z,28.00
2022-08-11T19:32:39.994Z,28.00
2022-08-11T19:35:35.017Z,27.90
2022-08-11T19:41:56.815Z,27.60
2022-08-11T19:48:14.425Z,27.60
2022-08-11T19:51:10.086Z,27.40
2022-08-11T19:54:02.510Z,27.50
2022-08-11T19:56:57.317Z,27.40
2022-08-11T19:59:46.917Z,27.40
2022-08-11T20:02:36.541Z,27.30
2022-08-11T20:05:25.990Z,27.20
2022-08-11T20:08:23.021Z,27.10
2022-08-11T20:11:23.450Z,27.00
2022-08-11T20:14:14.230Z,26.90
2022-08-11T20:17:06.734Z,26.90
2022-08-11T20:19:57.612Z,26.90
2022-08-11T20:22:47.549Z,26.80
2022-08-11T20:25:36.327Z,26.70
2022-08-11T20:28:26.356Z,26.60
2022-08-11T20:31:14.584Z,26.60
2022-08-11T20:34:03.175Z,26.50
2022-08-11T20:36:54.816Z,26.40
2022-08-11T20:39:43.518Z,26.40
2022-08-11T20:42:32.892Z,26.40
2022-08-11T20:45:23.427Z,26.30
2022-08-11T20:48:14.892Z,26.30
2022-08-11T20:51:06.222Z,26.20
2022-08-11T20:53:56.366Z,26.20
2022-08-11T20:56:44.613Z,26.10
2022-08-11T20:59:38.492Z,26.20
2022-08-11T21:02:39.380Z,26.20
2022-08-11T21:06:10.521Z,26.10
2022-08-11T21:08:33.601Z,26.10
2022-08-11T21:11:27.718Z,26.10
2022-08-11T21:14:16.891Z,26.10
2022-08-11T21:17:27.718Z,26.10
2022-08-11T21:23:54.814Z,26.00
2022-08-11T21:26:45.745Z,25.90
2022-08-11T21:29:33.259Z,25.80
2022-08-11T21:36:05.161Z,25.70
2022-08-11T21:38:56.077Z,25.80
2022-08-11T21:41:49.030Z,25.70
2022-08-11T21:44:40.310Z,25.70
2022-08-11T21:47:42.912Z,25.70
2022-08-11T21:50:42.041Z,25.60
2022-08-11T21:53:31.235Z,25.60
2022-08-11T21:56:20.316Z,25.60
2022-08-11T21:59:08.832Z,25.60
2022-08-11T22:01:55.637Z,25.40
2022-08-11T22:04:50.302Z,25.40
2022-08-11T22:07:41.171Z,25.50
2022-08-11T22:10:42.428Z,25.40
2022-08-11T22:13:31.838Z,25.40
2022-08-11T22:16:18.855Z,25.40
2022-08-11T22:19:06.482Z,25.40
2022-08-11T22:22:01.048Z,25.30
2022-08-11T22:24:53.600Z,25.30
2022-08-11T22:27:40.636Z,25.30
2022-08-11T22:30:30.439Z,25.20
2022-08-11T22:33:19.227Z,25.20
2022-08-11T22:36:14.622Z,25.20
2022-08-11T22:39:01.686Z,25.10
2022-08-11T22:41:50.415Z,25.10
2022-08-11T22:44:36.431Z,25.00
2022-08-11T22:47:23.962Z,25.10
2022-08-11T22:50:17.194Z,25.00
2022-08-11T22:53:04.093Z,25.00
2022-08-11T22:55:51.018Z,25.00
2022-08-11T22:58:41.592Z,24.90
2022-08-11T23:01:28.362Z,24.90
2022-08-11T23:04:15.374Z,24.90
2022-08-11T23:07:02.048Z,24.90
2022-08-11T23:09:50.086Z,24.90
2022-08-11T23:12:36.788Z,24.90
2022-08-11T23:15:27.031Z,24.80
2022-08-11T23:18:14.001Z,24.80
2022-08-11T23:21:01.366Z,24.80
2022-08-11T23:23:48.597Z,24.70
2022-08-11T23:29:58.367Z,24.60
2022-08-11T23:32:47.706Z,24.50
2022-08-11T23:35:38.445Z,24.40
2022-08-11T23:38:26.208Z,24.50
2022-08-11T23:41:12.849Z,24.40
2022-08-11T23:43:59.038Z,24.30
2022-08-11T23:46:48.077Z,24.30
2022-08-11T23:49:36.131Z,24.30
2022-08-11T23:52:23.657Z,24.20
2022-08-11T23:55:09.743Z,24.20
2022-08-11T23:57:56.354Z,24.20
